createdAt,value
2019-01-30T00:00:30.538Z,17.97
2019-01-30T00:03:08.948Z,16.37
2019-01-30T00:05:44.277Z,14.13
2019-01-30T00:08:11.187Z,15.53
2019-01-30T00:10:38.609Z,16.80
2019-01-30T00:13:06.765Z,16.07
2019-01-30T00:15:37.754Z,15.10
2019-01-30T00:18:05.932Z,15.98
2019-01-30T00:20:36.708Z,15.70
2019-01-30T00:23:06.464Z,14.53
2019-01-30T00:25:41.152Z,18.50
2019-01-30T00:28:08.714Z,15.67
2019-01-30T00:30:36.125Z,15.43
2019-01-30T00:33:05.423Z,13.18
2019-01-30T00:35:32.341Z,13.60
2019-01-30T00:38:05.327Z,17.63
2019-01-30T00:40:35.811Z,16.70
2019-01-30T00:43:02.409Z,19.40
2019-01-30T00:45:31.367Z,14.73
2019-01-30T00:48:07.003Z,16.48
2019-01-30T00:50:41.822Z,17.57
2019-01-30T00:53:09.109Z,15.53
2019-01-30T00:55:40.227Z,15.87
2019-01-30T00:58:08.026Z,14.80
2019-01-30T01:00:34.695Z,15.40
2019-01-30T01:03:01.337Z,14.23
2019-01-30T01:05:28.042Z,14.70
2019-01-30T01:07:54.990Z,15.20
2019-01-30T01:10:21.598Z,14.63
2019-01-30T01:12:52.831Z,15.50
2019-01-30T01:15:22.751Z,15.97
2019-01-30T01:17:52.918Z,17.47
2019-01-30T01:20:28.407Z,13.13
2019-01-30T01:22:51.357Z,15.13
2019-01-30T01:25:19.313Z,13.93
2019-01-30T01:27:52.181Z,15.00
2019-01-30T01:30:25.375Z,15.30
2019-01-30T01:32:48.899Z,12.80
2019-01-30T01:35:16.818Z,15.23
2019-01-30T01:37:44.902Z,15.77
2019-01-30T01:40:14.419Z,15.78
2019-01-30T01:42:41.280Z,16.07
2019-01-30T01:45:11.091Z,17.77
2019-01-30T01:47:41.792Z,17.63
2019-01-30T01:50:09.040Z,19.40
2019-01-30T01:52:36.673Z,17.87
2019-01-30T01:55:07.437Z,18.67
2019-01-30T01:57:35.088Z,19.87
2019-01-30T02:00:03.947Z,17.33
2019-01-30T02:02:30.747Z,16.87
2019-01-30T02:04:57.938Z,20.23
2019-01-30T02:07:25.455Z,18.23
2019-01-30T02:09:52.081Z,17.63
2019-01-30T02:12:18.717Z,18.85
2019-01-30T02:14:46.644Z,19.47
2019-01-30T02:17:14.745Z,17.73
2019-01-30T02:19:41.448Z,18.13
2019-01-30T02:22:08.436Z,19.35
2019-01-30T02:24:35.099Z,15.10
2019-01-30T02:27:01.832Z,16.60
2019-01-30T02:29:28.999Z,17.15
2019-01-30T02:31:55.794Z,17.97
2019-01-30T02:34:23.058Z,16.73
2019-01-30T02:36:50.095Z,17.77
2019-01-30T02:41:48.952Z,16.80
2019-01-30T02:44:15.936Z,15.53
2019-01-30T02:46:42.595Z,21.20
2019-01-30T02:49:11.774Z,16.27
2019-01-30T02:51:42.607Z,19.42
2019-01-30T02:54:12.382Z,16.93
2019-01-30T02:59:27.964Z,19.97
2019-01-30T03:01:54.590Z,17.97
2019-01-30T03:04:21.558Z,19.30
2019-01-30T03:06:48.576Z,16.53
2019-01-30T03:09:15.920Z,18.73
2019-01-30T03:11:42.726Z,17.47
2019-01-30T03:14:10.158Z,15.40
2019-01-30T03:16:36.944Z,18.60
2019-01-30T03:19:03.720Z,20.83
2019-01-30T03:21:30.361Z,18.83
2019-01-30T03:23:57.010Z,17.67
2019-01-30T03:26:23.923Z,17.80
2019-01-30T03:28:50.835Z,17.20
2019-01-30T03:31:19.372Z,21.02
2019-01-30T03:33:46.384Z,17.90
2019-01-30T03:36:12.968Z,17.40
2019-01-30T03:38:39.941Z,15.23
2019-01-30T03:41:06.879Z,16.00
2019-01-30T03:43:33.607Z,20.47
2019-01-30T03:46:00.281Z,20.97
2019-01-30T03:48:27.124Z,21.00
2019-01-30T03:50:54.395Z,20.77
2019-01-30T03:53:21.139Z,24.00
2019-01-30T03:55:48.454Z,20.15
2019-01-30T03:58:16.609Z,21.95
2019-01-30T04:00:43.427Z,20.43
2019-01-30T04:03:10.401Z,20.03
2019-01-30T04:05:37.265Z,22.40
2019-01-30T04:08:03.910Z,23.13
2019-01-30T04:10:30.627Z,22.33
2019-01-30T04:12:57.708Z,20.53
2019-01-30T04:15:24.397Z,19.40
2019-01-30T04:17:51.158Z,22.00
2019-01-30T04:20:17.867Z,24.87
2019-01-30T04:22:44.566Z,23.40
2019-01-30T04:25:11.578Z,25.57
2019-01-30T04:27:38.698Z,23.75
2019-01-30T04:30:05.690Z,27.77
2019-01-30T04:35:17.217Z,26.20
2019-01-30T04:37:43.865Z,24.07
2019-01-30T04:40:15.507Z,20.67
2019-01-30T04:42:42.228Z,29.13
2019-01-30T04:45:09.485Z,24.57
2019-01-30T04:47:38.669Z,23.63
2019-01-30T04:50:07.385Z,24.50
2019-01-30T04:52:36.391Z,26.43
2019-01-30T04:55:03.145Z,23.30
2019-01-30T04:57:33.590Z,22.27
2019-01-30T05:00:00.352Z,19.83
2019-01-30T05:02:27.708Z,21.17
2019-01-30T05:04:54.402Z,27.10
2019-01-30T05:07:21.180Z,24.10
2019-01-30T05:09:48.068Z,22.52
2019-01-30T05:12:14.787Z,24.30
2019-01-30T05:14:41.419Z,23.50
2019-01-30T05:17:08.288Z,26.20
2019-01-30T05:19:34.945Z,23.60
2019-01-30T05:22:01.618Z,22.97
2019-01-30T05:24:28.256Z,21.87
2019-01-30T05:26:54.892Z,23.43
2019-01-30T05:29:21.746Z,23.30
2019-01-30T05:31:48.669Z,21.17
2019-01-30T05:34:15.381Z,28.60
2019-01-30T05:36:41.975Z,24.40
2019-01-30T05:39:08.818Z,23.33
2019-01-30T05:41:35.778Z,23.83
2019-01-30T05:44:02.601Z,30.10
2019-01-30T05:46:29.289Z,27.27
2019-01-30T05:48:56.239Z,27.50
2019-01-30T05:51:23.024Z,30.30
2019-01-30T05:53:50.376Z,28.05
2019-01-30T05:56:20.218Z,25.50
2019-01-30T05:58:49.696Z,25.62
2019-01-30T06:01:17.569Z,24.87
2019-01-30T06:03:44.219Z,28.10
2019-01-30T06:06:11.035Z,26.33
2019-01-30T06:08:37.643Z,28.63
2019-01-30T06:11:04.588Z,24.87
2019-01-30T06:13:31.366Z,25.37
2019-01-30T06:15:58.518Z,28.20
2019-01-30T06:18:25.249Z,24.30
2019-01-30T06:20:52.465Z,23.00
2019-01-30T06:23:19.326Z,22.57
2019-01-30T06:25:46.300Z,19.75
2019-01-30T06:28:12.944Z,19.63
2019-01-30T06:30:39.680Z,21.03
2019-01-30T06:33:06.531Z,23.23
2019-01-30T06:35:33.569Z,20.50
2019-01-30T06:38:00.796Z,20.70
2019-01-30T06:40:27.886Z,19.07
2019-01-30T06:42:54.785Z,21.03
2019-01-30T06:45:21.841Z,18.53
2019-01-30T06:47:49.146Z,17.00
2019-01-30T06:50:15.794Z,17.77
2019-01-30T06:52:43.282Z,18.98
2019-01-30T06:55:12.772Z,15.90
2019-01-30T06:57:40.399Z,15.67
2019-01-30T07:00:07.167Z,20.00
2019-01-30T07:02:34.178Z,17.27
2019-01-30T07:05:01.400Z,18.25
2019-01-30T07:07:28.212Z,16.97
2019-01-30T07:09:55.192Z,15.28
2019-01-30T07:12:22.228Z,17.65
2019-01-30T07:14:49.931Z,19.57
2019-01-30T07:17:16.565Z,16.90
2019-01-30T07:19:43.297Z,18.83
2019-01-30T07:22:10.201Z,17.82
2019-01-30T07:24:36.801Z,18.10
2019-01-30T07:27:03.404Z,20.07
2019-01-30T07:29:30.057Z,19.80
2019-01-30T07:31:56.824Z,18.67
2019-01-30T07:34:23.452Z,17.80
2019-01-30T07:36:50.157Z,17.73
2019-01-30T07:39:16.853Z,15.77
2019-01-30T07:41:43.584Z,19.27
2019-01-30T07:44:10.504Z,17.15
2019-01-30T07:46:37.212Z,16.27
2019-01-30T07:49:03.871Z,18.70
2019-01-30T07:51:30.669Z,15.97
2019-01-30T07:53:57.646Z,16.07
2019-01-30T07:56:24.313Z,17.15
2019-01-30T07:58:51.191Z,18.00
2019-01-30T08:01:17.860Z,20.10
2019-01-30T08:03:44.880Z,17.60
2019-01-30T08:06:11.780Z,19.27
2019-01-30T08:08:38.468Z,17.57
2019-01-30T08:11:07.313Z,22.20
2019-01-30T08:13:33.719Z,18.97
2019-01-30T08:16:00.519Z,20.90
2019-01-30T08:18:27.502Z,14.80
2019-01-30T08:20:54.176Z,17.23
2019-01-30T08:23:21.427Z,15.67
2019-01-30T08:25:48.252Z,17.30
2019-01-30T08:28:15.934Z,16.00
2019-01-30T08:30:43.323Z,12.47
2019-01-30T08:33:10.218Z,17.27
2019-01-30T08:35:38.650Z,16.30
2019-01-30T08:41:16.606Z,13.95
2019-01-30T08:44:17.686Z,14.90
2019-01-30T08:46:05.316Z,14.25
2019-01-30T08:48:41.638Z,18.05
2019-01-30T08:54:21.141Z,17.98
2019-01-30T08:56:39.076Z,17.85
2019-01-30T09:05:03.011Z,16.87
2019-01-30T09:07:44.339Z,14.23
2019-01-30T09:18:48.040Z,15.28
2019-01-30T09:21:43.663Z,15.60
2019-01-30T09:26:40.520Z,17.87
2019-01-30T09:29:33.667Z,17.32
2019-01-30T09:32:13.903Z,18.57
2019-01-30T09:34:53.135Z,18.40
2019-01-30T09:38:46.307Z,17.83
2019-01-30T09:45:55.071Z,22.43
2019-01-30T09:48:33.866Z,15.27
2019-01-30T09:50:59.755Z,15.40
2019-01-30T09:53:30.249Z,17.17
2019-01-30T09:55:57.207Z,21.20
2019-01-30T09:58:27.008Z,18.77
2019-01-30T10:00:53.684Z,17.40
2019-01-30T10:03:21.576Z,21.12
2019-01-30T10:05:48.250Z,21.50
2019-01-30T10:08:14.923Z,20.20
2019-01-30T10:10:41.531Z,17.30
2019-01-30T10:13:08.443Z,20.03
2019-01-30T10:15:35.630Z,19.60
2019-01-30T10:18:02.381Z,18.77
2019-01-30T10:20:29.058Z,20.13
2019-01-30T10:22:55.772Z,18.37
2019-01-30T10:25:24.920Z,18.63
2019-01-30T10:27:51.928Z,18.63
2019-01-30T10:30:20.726Z,17.97
2019-01-30T10:32:47.717Z,19.00
2019-01-30T10:35:15.734Z,17.53
2019-01-30T10:37:42.654Z,22.90
2019-01-30T10:40:09.307Z,20.00
2019-01-30T10:42:35.955Z,19.80
2019-01-30T10:45:02.851Z,17.03
2019-01-30T10:47:30.080Z,16.57
2019-01-30T10:49:56.845Z,18.83
2019-01-30T10:52:24.086Z,23.00
2019-01-30T10:54:52.249Z,20.05
2019-01-30T10:57:19.043Z,23.57
2019-01-30T10:59:46.031Z,20.13
2019-01-30T11:02:13.052Z,26.50
2019-01-30T11:04:40.098Z,24.60
2019-01-30T11:07:07.061Z,21.37
2019-01-30T11:09:34.302Z,23.62
2019-01-30T11:12:01.141Z,27.60
2019-01-30T11:14:28.200Z,22.70
2019-01-30T11:16:55.182Z,23.92
2019-01-30T11:19:22.690Z,21.42
2019-01-30T11:21:49.370Z,25.90
2019-01-30T11:24:16.270Z,21.27
2019-01-30T11:26:43.001Z,20.97
2019-01-30T11:29:10.088Z,25.53
2019-01-30T11:31:36.788Z,23.87
2019-01-30T11:34:07.682Z,25.47
2019-01-30T11:36:32.093Z,26.53
2019-01-30T11:38:58.742Z,24.23
2019-01-30T11:41:25.960Z,20.83
2019-01-30T11:43:53.157Z,20.70
2019-01-30T11:46:19.816Z,19.80
2019-01-30T11:48:56.012Z,16.47
2019-01-30T11:51:15.378Z,17.57
2019-01-30T11:53:42.071Z,18.53
2019-01-30T11:56:08.857Z,15.65
2019-01-30T11:58:35.852Z,15.45
2019-01-30T12:01:03.553Z,13.72
2019-01-30T12:03:30.335Z,21.13
2019-01-30T12:05:57.183Z,16.02
2019-01-30T12:08:24.038Z,14.57
2019-01-30T12:10:51.081Z,17.07
2019-01-30T12:13:18.110Z,16.97
2019-01-30T12:15:45.028Z,19.40
2019-01-30T12:18:11.663Z,13.88
2019-01-30T12:20:38.398Z,16.47
2019-01-30T12:23:05.162Z,15.40
2019-01-30T12:25:32.144Z,17.17
2019-01-30T12:27:59.112Z,17.62
2019-01-30T12:30:25.833Z,18.40
2019-01-30T12:32:53.971Z,16.95
2019-01-30T12:35:21.013Z,14.17
2019-01-30T12:40:16.911Z,15.53
2019-01-30T12:42:43.577Z,16.77
2019-01-30T12:45:10.265Z,19.23
2019-01-30T12:47:37.758Z,17.17
2019-01-30T12:50:04.536Z,18.30
2019-01-30T12:52:31.739Z,21.73
2019-01-30T12:54:58.449Z,19.10
2019-01-30T12:57:25.788Z,18.10
2019-01-30T12:59:54.002Z,19.65
2019-01-30T13:02:20.732Z,18.70
2019-01-30T13:04:47.628Z,24.37
2019-01-30T13:07:14.509Z,21.97
2019-01-30T13:09:41.210Z,22.20
2019-01-30T13:12:08.071Z,21.23
2019-01-30T13:14:34.982Z,22.47
2019-01-30T13:17:02.173Z,24.37
2019-01-30T13:19:28.921Z,25.17
2019-01-30T13:21:55.922Z,20.23
2019-01-30T13:24:24.378Z,22.52
2019-01-30T13:26:51.008Z,20.93
2019-01-30T13:29:17.943Z,21.23
2019-01-30T13:31:44.708Z,21.03
2019-01-30T13:34:11.422Z,18.17
2019-01-30T13:36:40.120Z,19.40
2019-01-30T13:39:06.624Z,22.77
2019-01-30T13:41:33.343Z,22.47
2019-01-30T13:44:00.519Z,23.53
2019-01-30T13:46:27.416Z,24.43
2019-01-30T13:48:54.850Z,22.67
2019-01-30T13:51:21.503Z,18.90
2019-01-30T13:53:48.561Z,16.87
2019-01-30T13:56:15.420Z,17.47
2019-01-30T13:58:42.967Z,19.27
2019-01-30T14:01:17.177Z,18.23
2019-01-30T14:03:38.568Z,20.68
2019-01-30T14:06:05.671Z,18.10
2019-01-30T14:08:32.616Z,18.67
2019-01-30T14:10:59.550Z,18.47
2019-01-30T14:13:26.496Z,18.15
2019-01-30T14:15:54.558Z,15.80
2019-01-30T14:18:21.283Z,15.60
2019-01-30T14:20:47.917Z,14.50
2019-01-30T14:23:14.952Z,14.33
2019-01-30T14:25:41.856Z,12.23
2019-01-30T14:28:08.797Z,12.07
2019-01-30T14:30:35.509Z,13.53
2019-01-30T14:33:02.549Z,11.70
2019-01-30T14:35:29.208Z,12.45
2019-01-30T14:37:56.555Z,12.47
2019-01-30T14:40:23.265Z,14.70
2019-01-30T14:42:50.154Z,13.03
2019-01-30T14:45:17.264Z,10.77
2019-01-30T14:47:43.884Z,10.93
2019-01-30T14:50:10.624Z,9.73
2019-01-30T14:52:37.369Z,11.07
2019-01-30T14:55:04.314Z,13.37
2019-01-30T14:57:30.972Z,11.40
2019-01-30T14:59:57.765Z,15.33
2019-01-30T15:02:26.333Z,12.50
2019-01-30T15:04:53.372Z,12.37
2019-01-30T15:07:28.880Z,12.67
2019-01-30T15:09:48.548Z,12.37
2019-01-30T15:12:15.478Z,13.90
2019-01-30T15:14:42.272Z,13.17
2019-01-30T15:17:08.978Z,10.53
2019-01-30T15:19:35.747Z,11.93
2019-01-30T15:22:02.941Z,12.87
2019-01-30T15:24:29.736Z,11.18
2019-01-30T15:26:56.828Z,12.87
2019-01-30T15:29:24.060Z,13.23
2019-01-30T15:31:50.795Z,15.27
2019-01-30T15:34:17.626Z,15.97
2019-01-30T15:36:44.478Z,13.15
2019-01-30T15:39:11.332Z,15.73
2019-01-30T15:41:38.418Z,16.23
2019-01-30T15:44:05.457Z,15.00
2019-01-30T15:46:32.228Z,16.20
2019-01-30T15:48:59.225Z,17.07
2019-01-30T15:51:26.446Z,16.60
2019-01-30T15:53:53.038Z,17.00
2019-01-30T15:56:20.247Z,17.30
2019-01-30T15:58:47.153Z,16.93
2019-01-30T16:01:14.069Z,17.90
2019-01-30T16:03:40.776Z,13.60
2019-01-30T16:06:07.430Z,15.80
2019-01-30T16:08:34.293Z,16.52
2019-01-30T16:11:01.047Z,14.73
2019-01-30T16:13:27.994Z,17.90
2019-01-30T16:15:54.773Z,13.50
2019-01-30T16:18:21.595Z,16.50
2019-01-30T16:20:48.723Z,17.07
2019-01-30T16:23:16.360Z,15.23
2019-01-30T16:25:43.084Z,14.90
2019-01-30T16:28:09.856Z,14.83
2019-01-30T16:30:36.830Z,16.73
2019-01-30T16:33:03.792Z,15.13
2019-01-30T16:35:30.721Z,29.10
2019-01-30T16:37:58.947Z,17.43
2019-01-30T16:40:30.881Z,16.40
2019-01-30T16:42:57.912Z,16.27
2019-01-30T16:45:30.303Z,14.03
2019-01-30T16:48:02.203Z,16.13
2019-01-30T16:50:29.294Z,17.53
2019-01-30T16:52:57.851Z,19.67
2019-01-30T16:55:25.488Z,18.53
2019-01-30T16:58:07.360Z,16.17
2019-01-30T17:00:23.202Z,15.23
2019-01-30T17:02:50.143Z,17.82
2019-01-30T17:05:16.840Z,18.00
2019-01-30T17:07:47.063Z,15.03
2019-01-30T17:10:13.689Z,15.83
2019-01-30T17:12:40.519Z,15.50
2019-01-30T17:15:08.154Z,15.08
2019-01-30T17:17:35.761Z,14.50
2019-01-30T17:20:02.640Z,14.30
2019-01-30T17:22:29.525Z,16.40
2019-01-30T17:24:57.930Z,14.88
2019-01-30T17:27:24.659Z,21.10
2019-01-30T17:29:52.409Z,22.40
2019-01-30T17:32:19.056Z,17.00
2019-01-30T17:34:46.139Z,24.90
2019-01-30T17:37:12.815Z,16.13
2019-01-30T17:39:39.443Z,16.90
2019-01-30T17:42:06.365Z,28.70
2019-01-30T17:44:33.049Z,16.80
2019-01-30T17:47:00.115Z,19.70
2019-01-30T17:49:28.367Z,16.97
2019-01-30T17:51:55.057Z,15.93
2019-01-30T17:54:22.046Z,20.17
2019-01-30T17:56:48.773Z,16.57
2019-01-30T17:59:15.448Z,19.30
2019-01-30T18:01:42.494Z,23.07
2019-01-30T18:04:09.313Z,27.93
2019-01-30T18:06:36.194Z,20.52
2019-01-30T18:09:02.850Z,22.25
2019-01-30T18:11:31.564Z,22.63
2019-01-30T18:13:59.784Z,22.67
2019-01-30T18:16:26.931Z,23.30
2019-01-30T18:18:55.915Z,23.27
2019-01-30T18:21:22.536Z,23.90
2019-01-30T18:23:49.636Z,22.27
2019-01-30T18:26:16.539Z,22.37
2019-01-30T18:28:43.262Z,22.93
2019-01-30T18:31:09.983Z,20.90
2019-01-30T18:33:36.665Z,22.43
2019-01-30T18:36:04.637Z,23.17
2019-01-30T18:38:31.256Z,21.73
2019-01-30T18:41:06.201Z,24.30
2019-01-30T18:43:32.871Z,25.20
2019-01-30T18:46:02.091Z,25.47
2019-01-30T18:48:30.363Z,27.63
2019-01-30T18:50:57.120Z,21.67
2019-01-30T18:53:24.760Z,24.10
2019-01-30T18:55:54.558Z,20.73
2019-01-30T18:58:22.219Z,20.03
2019-01-30T19:00:50.436Z,19.67
2019-01-30T19:03:17.110Z,19.63
2019-01-30T19:05:44.108Z,20.13
2019-01-30T19:08:11.403Z,23.30
2019-01-30T19:10:38.509Z,22.50
2019-01-30T19:13:05.520Z,23.00
2019-01-30T19:15:32.432Z,24.80
2019-01-30T19:17:59.697Z,20.17
2019-01-30T19:20:26.401Z,24.13
2019-01-30T19:22:53.265Z,22.80
2019-01-30T19:25:19.881Z,22.60
2019-01-30T19:27:46.948Z,23.07
2019-01-30T19:30:13.588Z,23.70
2019-01-30T19:32:47.114Z,19.60
2019-01-30T19:35:14.504Z,22.42
2019-01-30T19:37:41.703Z,25.45
2019-01-30T19:40:08.383Z,22.15
2019-01-30T19:42:35.313Z,24.13
2019-01-30T19:45:01.919Z,22.17
2019-01-30T19:47:31.266Z,24.50
2019-01-30T19:49:57.855Z,27.00
2019-01-30T19:52:24.515Z,22.93
2019-01-30T19:54:51.139Z,25.23
2019-01-30T19:57:18.077Z,27.60
2019-01-30T19:59:44.837Z,28.80
2019-01-30T20:02:11.573Z,26.90
2019-01-30T20:04:38.302Z,24.80
2019-01-30T20:07:14.558Z,28.13
2019-01-30T20:09:33.544Z,24.73
2019-01-30T20:12:00.655Z,25.40
2019-01-30T20:14:27.227Z,25.17
2019-01-30T20:16:53.854Z,30.93
2019-01-30T20:19:20.442Z,26.70
2019-01-30T20:21:47.336Z,26.43
2019-01-30T20:24:13.994Z,27.50
2019-01-30T20:26:40.576Z,25.23
2019-01-30T20:29:09.448Z,25.37
2019-01-30T20:31:36.467Z,27.80
2019-01-30T20:34:09.942Z,24.70
2019-01-30T20:36:31.766Z,30.10
2019-01-30T20:38:58.390Z,33.33
2019-01-30T20:41:25.063Z,29.97
2019-01-30T20:43:55.977Z,27.97
2019-01-30T20:46:23.555Z,29.23
2019-01-30T20:51:40.937Z,31.27
2019-01-30T20:54:09.024Z,31.42
2019-01-30T20:56:39.328Z,31.25
2019-01-30T20:59:20.261Z,31.15
2019-01-30T21:01:47.518Z,32.13
2019-01-30T21:04:14.156Z,32.00
2019-01-30T21:06:41.161Z,32.63
2019-01-30T21:09:08.050Z,33.97
2019-01-30T21:11:35.015Z,34.30
2019-01-30T21:14:01.614Z,30.83
2019-01-30T21:16:29.109Z,34.53
2019-01-30T21:18:55.753Z,33.40
2019-01-30T21:21:22.376Z,34.43
2019-01-30T21:23:49.315Z,30.80
2019-01-30T21:26:16.181Z,31.62
2019-01-30T21:28:42.994Z,31.27
2019-01-30T21:31:09.730Z,31.73
2019-01-30T21:33:36.375Z,30.97
2019-01-30T21:36:03.181Z,30.70
2019-01-30T21:38:31.190Z,32.90
2019-01-30T21:40:57.898Z,28.53
2019-01-30T21:43:24.725Z,32.47
2019-01-30T21:45:51.552Z,30.07
2019-01-30T21:48:18.505Z,31.20
2019-01-30T21:50:45.164Z,32.73
2019-01-30T21:53:11.771Z,29.60
2019-01-30T21:55:38.656Z,29.80
2019-01-30T21:58:05.821Z,27.67
2019-01-30T22:00:32.893Z,33.47
2019-01-30T22:02:59.737Z,30.83
2019-01-30T22:05:26.737Z,32.30
2019-01-30T22:08:00.723Z,36.00
2019-01-30T22:10:22.052Z,32.77
2019-01-30T22:12:48.874Z,29.40
2019-01-30T22:15:16.091Z,33.85
2019-01-30T22:17:43.005Z,33.70
2019-01-30T22:20:09.955Z,34.00
2019-01-30T22:22:36.804Z,35.17
2019-01-30T22:25:03.444Z,33.37
2019-01-30T22:27:30.211Z,34.57
2019-01-30T22:29:57.102Z,33.83
2019-01-30T22:32:23.736Z,35.00
2019-01-30T22:34:50.489Z,32.40
2019-01-30T22:37:17.277Z,32.90
2019-01-30T22:39:44.243Z,36.30
2019-01-30T22:42:11.228Z,39.83
2019-01-30T22:44:37.860Z,44.83
2019-01-30T22:47:04.522Z,36.00
2019-01-30T22:49:32.820Z,37.15
2019-01-30T22:51:59.606Z,38.80
2019-01-30T22:54:26.450Z,38.63
2019-01-30T22:56:53.169Z,37.87
2019-01-30T22:59:19.906Z,35.37
2019-01-30T23:01:46.612Z,35.50
2019-01-30T23:04:13.731Z,37.07
2019-01-30T23:06:40.636Z,33.57
2019-01-30T23:09:07.550Z,34.38
2019-01-30T23:11:34.567Z,35.30
2019-01-30T23:14:02.418Z,34.83
2019-01-30T23:16:29.154Z,36.63
2019-01-30T23:18:55.835Z,34.97
2019-01-30T23:21:22.825Z,39.13
2019-01-30T23:23:49.437Z,38.03
2019-01-30T23:26:16.082Z,41.67
2019-01-30T23:28:43.300Z,38.83
2019-01-30T23:31:10.208Z,40.10
2019-01-30T23:33:37.098Z,36.08
2019-01-30T23:36:04.328Z,32.50
2019-01-30T23:38:34.299Z,35.73
2019-01-30T23:40:59.478Z,37.67
2019-01-30T23:43:26.341Z,33.13
2019-01-30T23:45:53.040Z,36.37
2019-01-30T23:48:19.661Z,36.60
2019-01-30T23:50:46.750Z,32.23
2019-01-30T23:53:13.675Z,35.47
2019-01-30T23:55:40.756Z,33.90
2019-01-30T23:58:07.821Z,35.60
